createdAt,value
2018-09-22T00:00:58.605Z,3.57
2018-09-22T00:03:33.569Z,4.27
2018-09-22T00:06:08.464Z,3.97
2018-09-22T00:08:43.543Z,3.50
2018-09-22T00:11:19.356Z,3.60
2018-09-22T00:13:54.446Z,3.90
2018-09-22T00:16:29.248Z,3.10
2018-09-22T00:19:03.978Z,3.90
2018-09-22T00:21:38.711Z,3.57
2018-09-22T00:24:13.770Z,3.13
2018-09-22T00:26:48.677Z,3.93
2018-09-22T00:29:24.150Z,3.37
2018-09-22T00:31:59.881Z,4.40
2018-09-22T00:34:35.129Z,3.30
2018-09-22T00:37:09.872Z,3.70
2018-09-22T00:39:45.116Z,4.00
2018-09-22T00:42:20.114Z,3.80
2018-09-22T00:44:55.040Z,3.50
2018-09-22T00:47:30.327Z,3.50
2018-09-22T00:50:05.080Z,3.77
2018-09-22T00:52:40.077Z,3.80
2018-09-22T00:55:14.822Z,3.80
2018-09-22T00:57:50.043Z,3.60
2018-09-22T01:00:25.063Z,3.93
2018-09-22T01:02:59.904Z,3.60
2018-09-22T01:05:34.673Z,3.33
2018-09-22T01:08:09.677Z,3.87
2018-09-22T01:10:44.391Z,4.20
2018-09-22T01:13:19.360Z,3.97
2018-09-22T01:15:54.299Z,3.10
2018-09-22T01:18:29.378Z,4.00
2018-09-22T01:21:04.894Z,4.00
2018-09-22T01:23:40.110Z,3.53
2018-09-22T01:26:15.106Z,4.07
2018-09-22T01:28:50.656Z,3.30
2018-09-22T01:31:25.546Z,3.40
2018-09-22T01:34:00.577Z,3.80
2018-09-22T01:36:35.525Z,3.50
2018-09-22T01:39:12.125Z,3.83
2018-09-22T01:41:46.809Z,3.83
2018-09-22T01:44:21.672Z,4.07
2018-09-22T01:46:57.271Z,3.53
2018-09-22T01:49:32.033Z,3.87
2018-09-22T01:52:06.937Z,3.10
2018-09-22T01:54:41.917Z,3.90
2018-09-22T01:57:16.876Z,4.57
2018-09-22T01:59:51.794Z,3.37
2018-09-22T02:02:26.895Z,3.43
2018-09-22T02:05:01.759Z,4.20
2018-09-22T02:07:36.541Z,4.20
2018-09-22T02:10:11.332Z,4.50
2018-09-22T02:12:46.197Z,4.40
2018-09-22T02:15:21.824Z,4.13
2018-09-22T02:17:56.724Z,3.90
2018-09-22T02:20:32.056Z,4.07
2018-09-22T02:23:07.277Z,3.80
2018-09-22T02:25:42.196Z,3.90
2018-09-22T02:28:16.808Z,4.20
2018-09-22T02:30:46.384Z,3.97
2018-09-22T02:33:15.543Z,4.33
2018-09-22T02:35:50.781Z,3.47
2018-09-22T02:38:25.488Z,4.20
2018-09-22T02:41:00.619Z,3.63
2018-09-22T02:43:35.812Z,3.90
2018-09-22T02:46:10.973Z,3.63
2018-09-22T02:48:45.792Z,3.70
2018-09-22T02:51:20.456Z,3.80
2018-09-22T02:53:55.359Z,3.63
2018-09-22T02:56:30.134Z,4.27
2018-09-22T02:59:05.556Z,3.90
2018-09-22T03:01:40.428Z,3.90
2018-09-22T03:04:15.168Z,4.20
2018-09-22T03:06:50.117Z,3.77
2018-09-22T03:09:25.040Z,3.30
2018-09-22T03:12:00.048Z,4.00
2018-09-22T03:14:34.771Z,4.10
2018-09-22T03:17:10.294Z,3.50
2018-09-22T03:19:45.356Z,4.07
2018-09-22T03:22:20.253Z,3.87
2018-09-22T03:24:55.418Z,4.17
2018-09-22T03:27:30.268Z,3.37
2018-09-22T03:30:05.365Z,3.47
2018-09-22T03:32:40.172Z,4.03
2018-09-22T03:35:15.244Z,4.50
2018-09-22T03:37:49.973Z,3.80
2018-09-22T03:40:24.764Z,3.50
2018-09-22T03:42:59.494Z,4.00
2018-09-22T03:45:34.626Z,3.90
2018-09-22T03:48:09.999Z,3.70
2018-09-22T03:50:45.271Z,4.00
2018-09-22T03:53:20.184Z,3.57
2018-09-22T03:55:55.071Z,3.60
2018-09-22T03:58:29.944Z,3.80
2018-09-22T04:01:04.941Z,3.53
2018-09-22T04:03:39.788Z,4.03
2018-09-22T04:06:14.462Z,4.40
2018-09-22T04:08:50.441Z,3.10
2018-09-22T04:11:25.169Z,3.80
2018-09-22T04:14:00.327Z,3.73
2018-09-22T04:16:35.054Z,3.33
2018-09-22T04:19:10.083Z,4.00
2018-09-22T04:21:45.106Z,3.67
2018-09-22T04:24:20.719Z,3.83
2018-09-22T04:26:56.241Z,4.10
2018-09-22T04:29:31.572Z,3.17
2018-09-22T04:32:06.460Z,3.20
2018-09-22T04:34:42.234Z,3.90
2018-09-22T04:37:17.158Z,3.70
2018-09-22T04:39:52.658Z,4.00
2018-09-22T04:42:27.722Z,3.53
2018-09-22T04:45:02.843Z,3.70
2018-09-22T04:47:37.759Z,3.20
2018-09-22T04:50:12.662Z,3.00
2018-09-22T04:52:47.738Z,3.60
2018-09-22T04:55:22.468Z,3.17
2018-09-22T04:57:57.582Z,3.90
2018-09-22T05:00:32.812Z,3.90
2018-09-22T05:03:07.616Z,3.40
2018-09-22T05:05:43.495Z,3.63
2018-09-22T05:08:18.406Z,3.63
2018-09-22T05:10:53.201Z,3.57
2018-09-22T05:13:28.158Z,3.60
2018-09-22T05:16:03.587Z,3.60
2018-09-22T05:18:38.446Z,3.80
2018-09-22T05:21:13.429Z,3.93
2018-09-22T05:23:48.445Z,4.13
2018-09-22T05:26:19.661Z,4.17
2018-09-22T05:28:54.489Z,3.73
2018-09-22T05:31:29.394Z,4.10
2018-09-22T05:34:04.485Z,5.10
2018-09-22T05:36:39.745Z,5.07
2018-09-22T05:39:21.285Z,4.23
2018-09-22T05:42:02.976Z,4.33
2018-09-22T05:44:37.980Z,5.00
2018-09-22T05:47:12.997Z,4.93
2018-09-22T05:49:47.963Z,4.90
2018-09-22T05:52:23.023Z,5.63
2018-09-22T05:54:58.497Z,5.20
2018-09-22T05:57:34.152Z,4.27
2018-09-22T06:00:09.280Z,5.30
2018-09-22T06:02:44.412Z,4.67
2018-09-22T06:05:19.262Z,4.53
2018-09-22T06:07:54.224Z,4.70
2018-09-22T06:10:29.298Z,4.67
2018-09-22T06:13:04.497Z,4.47
2018-09-22T06:15:39.408Z,4.27
2018-09-22T06:18:14.232Z,4.80
2018-09-22T06:20:49.138Z,4.40
2018-09-22T06:23:24.030Z,4.53
2018-09-22T06:25:59.408Z,4.13
2018-09-22T06:28:35.186Z,4.53
2018-09-22T06:31:10.183Z,4.77
2018-09-22T06:33:45.365Z,4.03
2018-09-22T06:36:26.896Z,4.50
2018-09-22T06:39:02.318Z,4.50
2018-09-22T06:41:37.200Z,3.73
2018-09-22T06:44:12.445Z,4.07
2018-09-22T06:46:47.398Z,3.70
2018-09-22T06:49:22.181Z,4.60
2018-09-22T06:51:57.550Z,4.20
2018-09-22T06:54:32.410Z,4.37
2018-09-22T06:57:07.517Z,4.07
2018-09-22T06:59:42.341Z,3.83
2018-09-22T07:02:17.219Z,4.10
2018-09-22T07:04:52.069Z,4.20
2018-09-22T07:07:27.139Z,4.40
2018-09-22T07:10:03.192Z,4.23
2018-09-22T07:12:38.315Z,3.90
2018-09-22T07:15:13.690Z,4.00
2018-09-22T07:17:48.711Z,4.13
2018-09-22T07:20:24.660Z,3.87
2018-09-22T07:23:04.784Z,4.00
2018-09-22T07:25:39.861Z,4.03
2018-09-22T07:28:15.192Z,4.30
2018-09-22T07:30:50.869Z,4.27
2018-09-22T07:33:25.953Z,3.50
2018-09-22T07:36:01.053Z,3.47
2018-09-22T07:38:36.110Z,3.43
2018-09-22T07:41:11.923Z,4.40
2018-09-22T07:43:46.922Z,3.90
2018-09-22T07:46:21.950Z,4.00
2018-09-22T07:48:56.854Z,3.40
2018-09-22T07:51:32.162Z,4.17
2018-09-22T07:54:08.218Z,4.33
2018-09-22T07:56:43.254Z,4.07
2018-09-22T07:59:18.234Z,3.67
2018-09-22T08:01:53.077Z,4.03
2018-09-22T08:04:28.455Z,4.20
2018-09-22T08:07:03.710Z,4.20
2018-09-22T08:09:38.765Z,3.70
2018-09-22T08:12:13.693Z,3.60
2018-09-22T08:14:48.593Z,3.50
2018-09-22T08:17:23.608Z,3.50
2018-09-22T08:19:58.635Z,3.67
2018-09-22T08:22:33.726Z,3.60
2018-09-22T08:25:09.073Z,3.87
2018-09-22T08:27:44.017Z,3.93
2018-09-22T08:30:19.292Z,3.93
2018-09-22T08:32:54.297Z,4.10
2018-09-22T08:35:29.562Z,3.73
2018-09-22T08:38:05.525Z,3.43
2018-09-22T08:40:40.638Z,3.30
2018-09-22T08:43:15.548Z,3.13
2018-09-22T08:45:51.614Z,3.80
2018-09-22T08:48:26.682Z,3.50
2018-09-22T08:51:01.660Z,2.90
2018-09-22T08:53:36.615Z,3.50
2018-09-22T08:56:11.580Z,3.40
2018-09-22T08:58:46.404Z,3.23
2018-09-22T09:01:21.769Z,3.63
2018-09-22T09:03:56.829Z,3.87
2018-09-22T09:06:31.837Z,2.90
2018-09-22T09:09:09.010Z,3.57
2018-09-22T09:11:43.948Z,3.13
2018-09-22T09:14:19.503Z,3.30
2018-09-22T09:16:54.644Z,2.97
2018-09-22T09:19:30.200Z,3.00
2018-09-22T09:22:04.890Z,3.30
2018-09-22T09:24:39.760Z,3.00
2018-09-22T09:27:14.732Z,3.40
2018-09-22T09:29:49.826Z,3.00
2018-09-22T09:32:24.534Z,3.80
2018-09-22T09:35:00.073Z,3.50
2018-09-22T09:37:35.510Z,2.90
2018-09-22T09:40:10.357Z,3.67
2018-09-22T09:42:45.148Z,2.90
2018-09-22T09:45:20.077Z,2.70
2018-09-22T09:47:54.915Z,2.70
2018-09-22T09:50:29.802Z,3.20
2018-09-22T09:53:04.819Z,3.20
2018-09-22T09:55:39.938Z,3.13
2018-09-22T09:58:18.520Z,2.40
2018-09-22T10:00:53.241Z,2.50
2018-09-22T10:03:28.157Z,3.00
2018-09-22T10:06:03.768Z,2.50
2018-09-22T10:08:38.536Z,2.37
2018-09-22T10:11:13.865Z,2.77
2018-09-22T10:13:48.948Z,2.47
2018-09-22T10:16:23.655Z,2.80
2018-09-22T10:18:59.331Z,2.40
2018-09-22T10:21:34.058Z,2.70
2018-09-22T10:24:09.609Z,2.30
2018-09-22T10:26:44.542Z,2.87
2018-09-22T10:29:20.182Z,2.60
2018-09-22T10:31:54.939Z,2.43
2018-09-22T10:34:29.929Z,2.43
2018-09-22T10:37:05.472Z,2.80
2018-09-22T10:39:40.500Z,2.90
2018-09-22T10:42:15.860Z,2.73
2018-09-22T10:44:50.957Z,2.70
2018-09-22T10:47:26.132Z,2.83
2018-09-22T10:50:01.320Z,2.37
2018-09-22T10:52:36.292Z,2.67
2018-09-22T10:55:11.758Z,2.40
2018-09-22T10:57:46.700Z,2.30
2018-09-22T11:00:21.766Z,3.10
2018-09-22T11:02:56.766Z,3.20
2018-09-22T11:05:31.662Z,2.63
2018-09-22T11:08:07.066Z,2.50
2018-09-22T11:10:41.960Z,2.67
2018-09-22T11:13:17.562Z,2.40
2018-09-22T11:15:52.435Z,3.10
2018-09-22T11:18:27.816Z,2.93
2018-09-22T11:21:02.600Z,3.07
2018-09-22T11:23:37.685Z,2.90
2018-09-22T11:26:12.607Z,2.60
2018-09-22T11:28:47.684Z,2.97
2018-09-22T11:31:22.877Z,2.33
2018-09-22T11:33:57.929Z,2.43
2018-09-22T11:36:33.280Z,2.87
2018-09-22T11:39:09.778Z,2.57
2018-09-22T11:41:44.904Z,2.67
2018-09-22T11:44:20.676Z,2.60
2018-09-22T11:46:55.643Z,3.37
2018-09-22T11:49:31.275Z,3.60
2018-09-22T11:52:06.536Z,3.23
2018-09-22T11:54:41.773Z,2.87
2018-09-22T11:57:16.855Z,2.87
2018-09-22T11:59:51.763Z,3.23
2018-09-22T12:02:26.627Z,2.50
2018-09-22T12:05:01.843Z,2.97
2018-09-22T12:07:36.757Z,3.07
2018-09-22T12:10:12.055Z,2.87
2018-09-22T12:12:47.003Z,2.80
2018-09-22T12:15:22.507Z,2.90
2018-09-22T12:17:57.689Z,3.03
2018-09-22T12:20:32.697Z,3.10
2018-09-22T12:23:07.724Z,3.20
2018-09-22T12:25:42.646Z,2.70
2018-09-22T12:28:17.628Z,2.90
2018-09-22T12:30:47.095Z,2.90
2018-09-22T12:33:22.346Z,3.23
2018-09-22T12:35:57.959Z,3.17
2018-09-22T12:38:32.824Z,3.20
2018-09-22T12:41:07.899Z,2.97
2018-09-22T12:43:42.907Z,3.90
2018-09-22T12:46:18.232Z,2.90
2018-09-22T12:48:52.989Z,2.83
2018-09-22T12:51:27.937Z,2.93
2018-09-22T12:54:03.122Z,2.80
2018-09-22T12:56:37.801Z,2.53
2018-09-22T12:59:12.806Z,2.70
2018-09-22T13:01:48.083Z,2.60
2018-09-22T13:04:22.883Z,2.67
2018-09-22T13:06:58.149Z,3.17
2018-09-22T13:09:33.661Z,2.43
2018-09-22T13:12:08.309Z,2.40
2018-09-22T13:14:44.219Z,2.67
2018-09-22T13:17:19.749Z,2.47
2018-09-22T13:19:54.945Z,2.77
2018-09-22T13:22:29.820Z,2.87
2018-09-22T13:25:05.503Z,2.33
2018-09-22T13:27:40.377Z,2.40
2018-09-22T13:30:15.398Z,2.30
2018-09-22T13:32:50.341Z,2.23
2018-09-22T13:35:26.076Z,2.10
2018-09-22T13:38:01.080Z,2.00
2018-09-22T13:40:35.871Z,1.70
2018-09-22T13:43:10.842Z,2.20
2018-09-22T13:45:45.802Z,2.10
2018-09-22T13:48:21.104Z,2.17
2018-09-22T13:50:56.119Z,2.53
2018-09-22T13:53:31.186Z,2.23
2018-09-22T13:56:06.385Z,2.30
2018-09-22T13:58:41.331Z,2.23
2018-09-22T14:01:16.281Z,2.40
2018-09-22T14:03:51.952Z,2.70
2018-09-22T14:06:27.648Z,2.80
2018-09-22T14:09:02.353Z,2.73
2018-09-22T14:11:37.446Z,2.57
2018-09-22T14:14:12.401Z,3.03
2018-09-22T14:16:47.291Z,2.73
2018-09-22T14:19:22.231Z,2.57
2018-09-22T14:21:57.289Z,2.23
2018-09-22T14:24:32.194Z,2.40
2018-09-22T14:27:07.307Z,2.33
2018-09-22T14:29:42.512Z,2.20
2018-09-22T14:32:17.515Z,2.20
2018-09-22T14:34:52.998Z,2.30
2018-09-22T14:37:28.619Z,2.40
2018-09-22T14:40:03.886Z,2.67
2018-09-22T14:42:38.700Z,2.50
2018-09-22T14:45:13.582Z,2.90
2018-09-22T14:47:48.621Z,3.10
2018-09-22T14:50:23.650Z,2.80
2018-09-22T14:52:58.837Z,2.40
2018-09-22T14:55:33.716Z,2.57
2018-09-22T14:58:08.682Z,2.23
2018-09-22T15:00:55.918Z,2.57
2018-09-22T15:03:42.751Z,2.30
2018-09-22T15:06:22.436Z,2.87
2018-09-22T15:08:57.624Z,2.37
2018-09-22T15:11:33.834Z,2.50
2018-09-22T15:14:11.898Z,2.50
2018-09-22T15:16:47.022Z,3.10
2018-09-22T15:19:21.773Z,2.43
2018-09-22T15:21:56.817Z,3.00
2018-09-22T15:24:32.201Z,2.83
2018-09-22T15:27:07.637Z,3.00
2018-09-22T15:29:42.315Z,2.93
2018-09-22T15:32:17.187Z,2.93
2018-09-22T15:34:51.913Z,2.90
2018-09-22T15:37:26.830Z,3.87
2018-09-22T15:40:02.064Z,3.50
2018-09-22T15:42:37.731Z,3.43
2018-09-22T15:45:12.336Z,3.63
2018-09-22T15:47:47.422Z,3.27
2018-09-22T15:50:22.362Z,3.33
2018-09-22T15:52:57.752Z,3.43
2018-09-22T15:55:33.116Z,3.40
2018-09-22T15:58:08.066Z,3.30
2018-09-22T16:00:43.086Z,3.93
2018-09-22T16:03:18.389Z,3.20
2018-09-22T16:05:58.697Z,3.27
2018-09-22T16:08:33.951Z,3.00
2018-09-22T16:11:09.261Z,3.07
2018-09-22T16:13:44.081Z,2.70
2018-09-22T16:16:19.283Z,2.57
2018-09-22T16:18:54.271Z,2.70
2018-09-22T16:21:29.527Z,2.60
2018-09-22T16:24:04.592Z,2.70
2018-09-22T16:26:39.477Z,2.97
2018-09-22T16:29:14.691Z,2.60
2018-09-22T16:31:49.868Z,2.20
2018-09-22T16:34:25.096Z,2.53
2018-09-22T16:37:00.239Z,2.80
2018-09-22T16:39:35.607Z,3.07
2018-09-22T16:42:10.591Z,2.70
2018-09-22T16:44:45.971Z,2.27
2018-09-22T16:47:20.715Z,2.87
2018-09-22T16:49:55.546Z,2.53
2018-09-22T16:52:30.566Z,2.47
2018-09-22T16:55:05.884Z,2.50
2018-09-22T16:57:43.828Z,2.60
2018-09-22T17:00:18.799Z,2.80
2018-09-22T17:02:53.776Z,2.73
2018-09-22T17:05:28.684Z,2.87
2018-09-22T17:07:58.008Z,3.37
2018-09-22T17:10:33.388Z,3.00
2018-09-22T17:13:08.389Z,2.73
2018-09-22T17:15:43.474Z,3.23
2018-09-22T17:18:19.348Z,3.27
2018-09-22T17:20:58.675Z,3.73
2018-09-22T17:23:34.494Z,3.80
2018-09-22T17:26:09.389Z,4.50
2018-09-22T17:28:47.494Z,3.97
2018-09-22T17:31:22.814Z,4.43
2018-09-22T17:33:58.175Z,3.40
2018-09-22T17:36:33.707Z,3.70
2018-09-22T17:39:10.945Z,3.77
2018-09-22T17:41:46.273Z,3.93
2018-09-22T17:44:24.931Z,4.77
2018-09-22T17:47:00.419Z,5.07
2018-09-22T17:49:36.293Z,4.30
2018-09-22T17:52:11.755Z,5.10
2018-09-22T17:54:47.797Z,4.30
2018-09-22T17:57:23.390Z,4.50
2018-09-22T17:59:59.050Z,4.37
2018-09-22T18:02:34.725Z,4.10
2018-09-22T18:05:09.811Z,4.00
2018-09-22T18:07:45.548Z,4.60
2018-09-22T18:10:20.565Z,4.50
2018-09-22T18:12:56.285Z,4.73
2018-09-22T18:15:32.807Z,5.37
2018-09-22T18:18:10.917Z,5.13
2018-09-22T18:20:46.124Z,5.20
2018-09-22T18:23:21.989Z,5.10
2018-09-22T18:25:58.212Z,4.53
2018-09-22T18:28:33.525Z,3.97
2018-09-22T18:31:09.325Z,5.80
2018-09-22T18:33:44.659Z,4.37
2018-09-22T18:36:21.421Z,3.93
2018-09-22T18:38:56.593Z,4.20
2018-09-22T18:41:33.295Z,3.90
2018-09-22T18:44:09.082Z,4.23
2018-09-22T18:46:44.422Z,3.90
2018-09-22T18:49:20.904Z,3.77
2018-09-22T18:51:55.791Z,3.97
2018-09-22T18:54:31.488Z,4.43
2018-09-22T18:57:08.048Z,4.50
2018-09-22T18:59:43.438Z,4.80
2018-09-22T19:02:19.099Z,4.20
2018-09-22T19:04:54.175Z,4.27
2018-09-22T19:07:31.352Z,4.50
2018-09-22T19:10:01.587Z,3.90
2018-09-22T19:12:37.544Z,4.10
2018-09-22T19:15:20.539Z,4.17
2018-09-22T19:18:02.117Z,4.07
2018-09-22T19:21:13.546Z,4.00
2018-09-22T19:23:58.098Z,4.10
2018-09-22T19:26:45.797Z,3.70
2018-09-22T19:30:23.978Z,4.50
2018-09-22T19:33:08.633Z,4.00
2018-09-22T19:35:48.327Z,4.40
2018-09-22T19:38:28.440Z,4.40
2018-09-22T19:41:11.016Z,4.67
2018-09-22T19:43:54.468Z,4.50
2018-09-22T19:46:33.190Z,4.97
2018-09-22T19:49:13.191Z,4.13
2018-09-22T19:51:56.016Z,4.57
2018-09-22T19:54:32.412Z,4.10
2018-09-22T19:57:08.061Z,4.50
2018-09-22T19:59:44.231Z,4.63
2018-09-22T20:02:21.606Z,4.60
2018-09-22T20:04:51.046Z,4.43
2018-09-22T20:07:26.535Z,5.17
2018-09-22T20:10:02.606Z,5.70
2018-09-22T20:12:38.519Z,6.17
2018-09-22T20:15:15.222Z,5.33
2018-09-22T20:17:50.588Z,5.80
2018-09-22T20:20:25.952Z,5.53
2018-09-22T20:23:01.403Z,5.23
2018-09-22T20:25:37.754Z,5.40
2018-09-22T20:28:13.703Z,5.20
2018-09-22T20:30:48.863Z,5.70
2018-09-22T20:33:23.971Z,4.73
2018-09-22T20:35:59.272Z,4.83
2018-09-22T20:38:34.606Z,5.53
2018-09-22T20:41:10.023Z,5.80
2018-09-22T20:43:45.769Z,6.00
2018-09-22T20:46:21.332Z,5.33
2018-09-22T20:48:56.355Z,6.57
2018-09-22T20:51:32.483Z,5.67
2018-09-22T20:54:07.588Z,6.40
2018-09-22T20:56:43.294Z,6.07
2018-09-22T20:59:18.370Z,6.57
2018-09-22T21:01:53.350Z,7.17
2018-09-22T21:04:28.419Z,6.30
2018-09-22T21:07:04.066Z,6.50
2018-09-22T21:09:39.277Z,6.67
2018-09-22T21:12:14.198Z,6.80
2018-09-22T21:14:49.746Z,6.40
2018-09-22T21:17:24.681Z,6.13
2018-09-22T21:19:59.936Z,6.80
2018-09-22T21:22:34.716Z,6.17
2018-09-22T21:25:09.918Z,5.30
2018-09-22T21:27:45.063Z,5.10
2018-09-22T21:30:20.230Z,5.50
2018-09-22T21:32:55.227Z,5.33
2018-09-22T21:35:30.325Z,5.80
2018-09-22T21:38:05.551Z,5.20
2018-09-22T21:40:40.634Z,5.40
2018-09-22T21:43:15.729Z,6.33
2018-09-22T21:45:51.298Z,6.77
2018-09-22T21:48:26.092Z,6.63
2018-09-22T21:51:01.128Z,7.20
2018-09-22T21:53:36.154Z,6.70
2018-09-22T21:56:11.176Z,6.70
2018-09-22T21:58:46.062Z,6.73
2018-09-22T22:01:26.288Z,6.80
2018-09-22T22:04:00.954Z,6.57
2018-09-22T22:06:36.043Z,6.20
2018-09-22T22:09:12.504Z,6.47
2018-09-22T22:11:48.115Z,6.50
2018-09-22T22:14:23.114Z,6.33
2018-09-22T22:16:53.773Z,6.13
2018-09-22T22:19:28.573Z,6.03
2018-09-22T22:22:03.254Z,5.90
2018-09-22T22:24:38.462Z,5.40
2018-09-22T22:27:13.350Z,6.13
2018-09-22T22:29:48.792Z,6.03
2018-09-22T22:32:23.651Z,5.40
2018-09-22T22:34:58.689Z,5.50
2018-09-22T22:37:34.045Z,5.40
2018-09-22T22:40:09.016Z,5.00
2018-09-22T22:42:43.872Z,4.67
2018-09-22T22:45:18.972Z,4.97
2018-09-22T22:47:53.841Z,5.17
2018-09-22T22:50:28.818Z,5.40
2018-09-22T22:53:03.644Z,6.07
2018-09-22T22:55:38.954Z,5.90
2018-09-22T22:58:14.736Z,8.07
2018-09-22T23:00:49.658Z,8.40
2018-09-22T23:03:24.567Z,9.60
2018-09-22T23:05:59.497Z,10.10
2018-09-22T23:08:34.684Z,10.10
2018-09-22T23:11:09.647Z,10.27
2018-09-22T23:13:44.521Z,9.90
2018-09-22T23:16:14.672Z,10.50
2018-09-22T23:18:50.095Z,11.23
2018-09-22T23:21:25.022Z,12.07
2018-09-22T23:23:59.844Z,11.40
2018-09-22T23:26:34.731Z,11.90
2018-09-22T23:29:09.633Z,12.70
2018-09-22T23:31:44.496Z,12.93
2018-09-22T23:34:19.583Z,11.67
2018-09-22T23:36:54.845Z,11.23
2018-09-22T23:39:30.054Z,10.23
2018-09-22T23:42:04.903Z,9.30
2018-09-22T23:44:39.914Z,10.50
2018-09-22T23:47:15.080Z,9.70
2018-09-22T23:49:50.015Z,10.57
2018-09-22T23:52:25.523Z,10.10
2018-09-22T23:55:00.374Z,10.10
2018-09-22T23:57:35.364Z,9.07
